createdAt,value
2022-08-20T00:01:02.315Z,22.46
2022-08-20T00:03:37.035Z,22.44
2022-08-20T00:06:15.899Z,22.49
2022-08-20T00:08:43.458Z,22.40
2022-08-20T00:11:13.455Z,22.38
2022-08-20T00:13:44.701Z,22.37
2022-08-20T00:16:13.422Z,22.37
2022-08-20T00:18:41.173Z,22.37
2022-08-20T00:21:10.956Z,22.33
2022-08-20T00:23:39.133Z,22.33
2022-08-20T00:26:06.483Z,22.38
2022-08-20T00:28:33.087Z,22.35
2022-08-20T00:30:59.671Z,22.32
2022-08-20T00:33:26.161Z,22.33
2022-08-20T00:35:59.333Z,22.37
2022-08-20T00:38:25.895Z,22.40
2022-08-20T00:40:55.744Z,22.33
2022-08-20T00:43:44.110Z,22.27
2022-08-20T00:46:15.878Z,22.27
2022-08-20T00:48:44.767Z,22.26
2022-08-20T00:51:18.106Z,22.27
2022-08-20T00:53:44.984Z,22.26
2022-08-20T00:56:12.621Z,22.26
2022-08-20T00:58:41.833Z,22.24
2022-08-20T01:01:09.426Z,22.32
2022-08-20T01:03:36.034Z,22.27
2022-08-20T01:06:02.602Z,22.23
2022-08-20T01:08:29.054Z,22.16
2022-08-20T01:11:10.233Z,22.18
2022-08-20T01:13:38.759Z,22.22
2022-08-20T01:16:13.476Z,22.24
2022-08-20T01:18:40.161Z,22.23
2022-08-20T01:21:08.287Z,22.08
2022-08-20T01:23:53.009Z,22.12
2022-08-20T01:26:30.323Z,22.26
2022-08-20T01:29:01.635Z,22.17
2022-08-20T01:31:31.321Z,22.17
2022-08-20T01:33:59.677Z,22.03
2022-08-20T01:36:37.713Z,22.08
2022-08-20T01:39:08.106Z,22.12
2022-08-20T01:41:59.127Z,22.11
2022-08-20T01:44:25.517Z,22.10
2022-08-20T01:46:57.693Z,21.99
2022-08-20T01:49:29.807Z,21.96
2022-08-20T01:51:59.609Z,21.98
2022-08-20T01:54:27.084Z,21.94
2022-08-20T01:57:01.806Z,21.91
2022-08-20T01:59:29.111Z,21.85
2022-08-20T02:01:58.050Z,21.93
2022-08-20T02:04:25.508Z,21.95
2022-08-20T02:06:57.729Z,21.92
2022-08-20T02:09:30.185Z,21.89
2022-08-20T02:11:57.751Z,21.89
2022-08-20T02:14:26.438Z,21.85
2022-08-20T02:16:54.743Z,21.79
2022-08-20T02:19:52.797Z,21.80
2022-08-20T02:22:39.804Z,21.86
2022-08-20T02:25:12.052Z,21.84
2022-08-20T02:27:41.024Z,21.79
2022-08-20T02:30:12.159Z,21.80
2022-08-20T02:32:56.298Z,21.70
2022-08-20T02:35:24.148Z,21.76
2022-08-20T02:37:51.814Z,21.78
2022-08-20T02:40:27.075Z,21.68
2022-08-20T02:42:57.862Z,21.74
2022-08-20T02:45:24.284Z,21.75
2022-08-20T02:47:53.880Z,21.78
2022-08-20T02:50:21.284Z,21.76
2022-08-20T02:52:52.107Z,21.70
2022-08-20T02:55:27.663Z,21.73
2022-08-20T02:57:58.909Z,21.68
2022-08-20T03:00:26.299Z,21.75
2022-08-20T03:02:52.749Z,21.64
2022-08-20T03:05:19.346Z,21.57
2022-08-20T03:07:49.366Z,21.50
2022-08-20T03:10:16.748Z,21.54
2022-08-20T03:12:43.155Z,21.49
2022-08-20T03:15:17.631Z,21.54
2022-08-20T03:17:45.334Z,21.53
2022-08-20T03:20:12.776Z,21.49
2022-08-20T03:22:39.537Z,21.49
2022-08-20T03:25:07.176Z,21.48
2022-08-20T03:27:36.505Z,21.48
2022-08-20T03:30:07.720Z,21.41
2022-08-20T03:32:34.365Z,21.33
2022-08-20T03:35:00.766Z,21.34
2022-08-20T03:37:32.377Z,21.29
2022-08-20T03:40:00.424Z,21.28
2022-08-20T03:42:27.315Z,21.27
2022-08-20T03:44:59.030Z,21.28
2022-08-20T03:47:26.572Z,21.26
2022-08-20T03:49:57.310Z,21.25
2022-08-20T03:52:23.697Z,21.22
2022-08-20T03:54:50.237Z,21.19
2022-08-20T03:57:16.990Z,21.13
2022-08-20T03:59:44.515Z,21.11
2022-08-20T04:02:12.085Z,21.11
2022-08-20T04:04:40.614Z,21.08
2022-08-20T04:07:17.074Z,21.08
2022-08-20T04:09:46.345Z,21.02
2022-08-20T04:12:13.009Z,21.02
2022-08-20T04:14:40.209Z,21.00
2022-08-20T04:17:09.930Z,20.95
2022-08-20T04:19:36.929Z,20.96
2022-08-20T04:22:03.933Z,20.89
2022-08-20T04:24:32.228Z,20.94
2022-08-20T04:26:59.722Z,20.95
2022-08-20T04:29:26.152Z,20.95
2022-08-20T04:32:00.483Z,20.93
2022-08-20T04:34:27.521Z,20.94
2022-08-20T04:36:54.074Z,20.94
2022-08-20T04:39:20.484Z,20.95
2022-08-20T04:41:47.029Z,20.89
2022-08-20T04:44:13.514Z,20.87
2022-08-20T04:46:40.751Z,20.88
2022-08-20T04:49:07.376Z,20.91
2022-08-20T04:51:33.974Z,20.92
2022-08-20T04:54:01.317Z,20.88
2022-08-20T04:56:31.334Z,20.88
2022-08-20T04:59:01.049Z,20.96
2022-08-20T05:01:28.657Z,20.97
2022-08-20T05:03:56.244Z,20.92
2022-08-20T05:06:28.441Z,20.92
2022-08-20T05:08:56.604Z,20.92
2022-08-20T05:11:33.143Z,20.90
2022-08-20T05:14:01.901Z,20.90
2022-08-20T05:16:28.328Z,20.83
2022-08-20T05:18:54.712Z,20.82
2022-08-20T05:21:21.352Z,20.88
2022-08-20T05:23:49.085Z,20.89
2022-08-20T05:26:16.004Z,20.89
2022-08-20T05:28:53.879Z,20.87
2022-08-20T05:31:31.417Z,20.92
2022-08-20T05:34:11.870Z,20.98
2022-08-20T05:36:41.094Z,20.96
2022-08-20T05:39:08.869Z,21.00
2022-08-20T05:41:36.225Z,21.02
2022-08-20T05:44:03.407Z,21.03
2022-08-20T05:46:31.661Z,20.98
2022-08-20T05:48:59.644Z,20.99
2022-08-20T05:51:27.789Z,21.02
2022-08-20T05:53:54.198Z,21.02
2022-08-20T05:56:26.930Z,21.00
2022-08-20T05:58:54.181Z,21.01
2022-08-20T06:01:21.070Z,21.01
2022-08-20T06:04:06.218Z,21.08
2022-08-20T06:06:44.917Z,21.03
2022-08-20T06:09:11.877Z,20.97
2022-08-20T06:11:38.244Z,21.01
2022-08-20T06:14:05.468Z,21.01
2022-08-20T06:16:32.044Z,21.10
2022-08-20T06:18:58.720Z,21.01
2022-08-20T06:21:25.816Z,21.01
2022-08-20T06:23:58.247Z,21.07
2022-08-20T06:26:30.088Z,21.15
2022-08-20T06:28:59.026Z,21.17
2022-08-20T06:31:27.181Z,21.18
2022-08-20T06:33:53.673Z,21.16
2022-08-20T06:36:20.764Z,21.11
2022-08-20T06:38:47.253Z,21.16
2022-08-20T06:41:13.965Z,21.21
2022-08-20T06:43:40.380Z,21.22
2022-08-20T06:46:06.943Z,21.28
2022-08-20T06:48:33.953Z,21.35
2022-08-20T06:51:01.358Z,21.43
2022-08-20T06:53:28.783Z,21.51
2022-08-20T06:55:56.770Z,21.59
2022-08-20T06:58:37.302Z,21.71
2022-08-20T07:01:11.005Z,21.81
2022-08-20T07:03:55.730Z,21.93
2022-08-20T07:06:26.001Z,21.90
2022-08-20T07:08:53.858Z,21.92
2022-08-20T07:11:26.340Z,21.92
2022-08-20T07:13:54.279Z,21.94
2022-08-20T07:16:20.723Z,22.01
2022-08-20T07:18:47.110Z,22.13
2022-08-20T07:21:13.601Z,22.23
2022-08-20T07:23:41.819Z,22.26
2022-08-20T07:26:08.356Z,22.26
2022-08-20T07:28:34.768Z,22.26
2022-08-20T07:31:20.440Z,22.20
2022-08-20T07:33:47.622Z,22.17
2022-08-20T07:36:17.601Z,22.14
2022-08-20T07:38:46.851Z,21.99
2022-08-20T07:41:14.746Z,21.98
2022-08-20T07:43:43.633Z,21.93
2022-08-20T07:46:10.138Z,21.89
2022-08-20T07:48:39.871Z,21.89
2022-08-20T07:51:08.084Z,21.94
2022-08-20T07:53:36.461Z,21.91
2022-08-20T07:56:09.035Z,21.92
2022-08-20T07:58:38.212Z,21.90
2022-08-20T08:01:06.529Z,21.89
2022-08-20T08:03:39.965Z,21.90
2022-08-20T08:06:29.295Z,21.93
2022-08-20T08:09:07.787Z,21.98
2022-08-20T08:11:38.206Z,22.05
2022-08-20T08:14:08.062Z,22.10
2022-08-20T08:16:36.235Z,22.13
2022-08-20T08:19:08.758Z,22.20
2022-08-20T08:21:35.564Z,22.32
2022-08-20T08:24:03.044Z,22.50
2022-08-20T08:26:29.567Z,22.69
2022-08-20T08:28:57.956Z,22.86
2022-08-20T08:31:25.751Z,23.04
2022-08-20T08:33:52.142Z,23.17
2022-08-20T08:36:18.618Z,23.14
2022-08-20T08:38:45.752Z,23.04
2022-08-20T08:41:25.753Z,22.92
2022-08-20T08:43:55.559Z,22.81
2022-08-20T08:46:27.139Z,22.73
2022-08-20T08:48:57.612Z,22.76
2022-08-20T08:51:39.969Z,22.78
2022-08-20T08:54:07.904Z,22.99
2022-08-20T08:56:35.494Z,23.08
2022-08-20T08:59:07.595Z,23.09
2022-08-20T09:01:55.360Z,23.00
2022-08-20T09:04:31.332Z,22.90
2022-08-20T09:06:58.634Z,22.99
2022-08-20T09:09:29.050Z,23.09
2022-08-20T09:12:01.914Z,23.31
2022-08-20T09:14:28.372Z,23.60
2022-08-20T09:16:54.753Z,23.77
2022-08-20T09:19:21.675Z,23.96
2022-08-20T09:21:48.139Z,24.06
2022-08-20T09:24:14.550Z,23.99
2022-08-20T09:26:41.020Z,23.87
2022-08-20T09:29:07.397Z,23.72
2022-08-20T09:31:33.796Z,23.62
2022-08-20T09:34:00.186Z,23.48
2022-08-20T09:36:31.777Z,23.38
2022-08-20T09:38:59.630Z,23.42
2022-08-20T09:41:26.042Z,23.72
2022-08-20T09:43:52.497Z,23.78
2022-08-20T09:46:18.951Z,23.69
2022-08-20T09:48:45.469Z,23.60
2022-08-20T09:51:12.454Z,23.52
2022-08-20T09:53:38.905Z,23.43
2022-08-20T09:56:05.600Z,23.35
2022-08-20T09:58:34.686Z,23.33
2022-08-20T10:01:07.932Z,23.68
2022-08-20T10:03:42.145Z,24.20
2022-08-20T10:06:08.681Z,24.43
2022-08-20T10:08:35.061Z,24.73
2022-08-20T10:11:01.441Z,24.68
2022-08-20T10:13:27.960Z,24.47
2022-08-20T10:15:54.362Z,24.43
2022-08-20T10:18:20.734Z,24.20
2022-08-20T10:20:47.282Z,24.07
2022-08-20T10:23:13.893Z,24.07
2022-08-20T10:25:42.115Z,24.26
2022-08-20T10:28:08.718Z,24.57
2022-08-20T10:30:35.450Z,24.98
2022-08-20T10:33:02.222Z,25.32
2022-08-20T10:35:29.259Z,25.59
2022-08-20T10:37:55.763Z,25.61
2022-08-20T10:40:22.494Z,25.42
2022-08-20T10:42:48.959Z,25.45
2022-08-20T10:45:16.637Z,25.73
2022-08-20T10:47:43.604Z,25.95
2022-08-20T10:50:15.017Z,26.20
2022-08-20T10:52:41.600Z,26.29
2022-08-20T10:55:08.884Z,26.48
2022-08-20T10:57:37.513Z,26.36
2022-08-20T11:00:05.982Z,26.09
2022-08-20T11:02:32.483Z,26.06
2022-08-20T11:04:58.866Z,25.83
2022-08-20T11:07:49.909Z,26.10
2022-08-20T11:10:15.034Z,26.38
2022-08-20T11:12:42.077Z,26.51
2022-08-20T11:15:13.115Z,26.07
2022-08-20T11:17:42.078Z,25.78
2022-08-20T11:20:10.417Z,25.55
2022-08-20T11:22:37.169Z,25.66
2022-08-20T11:25:05.662Z,26.08
2022-08-20T11:27:36.186Z,26.49
2022-08-20T11:30:03.897Z,26.82
2022-08-20T11:32:30.428Z,27.11
2022-08-20T11:34:56.885Z,27.34
2022-08-20T11:37:24.947Z,27.48
2022-08-20T11:39:51.870Z,27.46
2022-08-20T11:42:18.329Z,27.65
2022-08-20T11:44:44.730Z,27.74
2022-08-20T11:47:21.392Z,27.74
2022-08-20T11:49:47.825Z,27.68
2022-08-20T11:52:14.217Z,27.65
2022-08-20T11:54:44.357Z,27.79
2022-08-20T11:57:11.212Z,27.94
2022-08-20T11:59:37.653Z,27.96
2022-08-20T12:02:05.393Z,28.09
2022-08-20T12:04:35.277Z,28.06
2022-08-20T12:07:15.040Z,27.94
2022-08-20T12:09:50.624Z,27.46
2022-08-20T12:12:20.151Z,27.04
2022-08-20T12:14:46.534Z,26.83
2022-08-20T12:17:17.774Z,26.96
2022-08-20T12:19:44.160Z,27.36
2022-08-20T12:22:17.546Z,27.63
2022-08-20T12:24:51.944Z,27.84
2022-08-20T12:27:21.944Z,28.01
2022-08-20T12:29:52.286Z,27.75
2022-08-20T12:32:28.735Z,27.56
2022-08-20T12:34:55.897Z,27.16
2022-08-20T12:37:24.790Z,26.91
2022-08-20T12:39:54.219Z,26.74
2022-08-20T12:42:21.292Z,26.92
2022-08-20T12:44:48.186Z,27.18
2022-08-20T12:47:18.616Z,27.41
2022-08-20T12:49:54.715Z,27.61
2022-08-20T12:52:22.332Z,27.70
2022-08-20T12:54:48.792Z,27.69
2022-08-20T12:57:26.208Z,27.43
2022-08-20T12:59:52.606Z,27.49
2022-08-20T13:02:19.177Z,27.66
2022-08-20T13:04:45.697Z,27.77
2022-08-20T13:07:13.857Z,27.46
2022-08-20T13:09:41.016Z,27.26
2022-08-20T13:12:08.606Z,27.47
2022-08-20T13:14:36.073Z,27.58
2022-08-20T13:17:03.769Z,27.48
2022-08-20T13:19:34.739Z,27.46
2022-08-20T13:22:02.080Z,27.22
2022-08-20T13:24:28.541Z,27.01
2022-08-20T13:27:04.212Z,26.99
2022-08-20T13:29:30.668Z,26.96
2022-08-20T13:31:57.049Z,26.70
2022-08-20T13:34:23.430Z,26.67
2022-08-20T13:36:49.848Z,26.56
2022-08-20T13:39:16.520Z,26.66
2022-08-20T13:41:43.673Z,26.79
2022-08-20T13:44:10.777Z,26.88
2022-08-20T13:46:37.185Z,26.96
2022-08-20T13:49:04.363Z,26.99
2022-08-20T13:51:30.857Z,26.93
2022-08-20T13:53:57.321Z,26.77
2022-08-20T13:56:24.085Z,26.80
2022-08-20T13:58:50.451Z,26.82
2022-08-20T14:01:19.588Z,26.82
2022-08-20T14:03:47.715Z,26.87
2022-08-20T14:06:14.137Z,26.84
2022-08-20T14:08:40.558Z,26.81
2022-08-20T14:11:07.021Z,26.81
2022-08-20T14:13:39.129Z,26.78
2022-08-20T14:16:05.715Z,26.75
2022-08-20T14:18:52.627Z,26.53
2022-08-20T14:21:19.386Z,26.43
2022-08-20T14:23:45.757Z,26.39
2022-08-20T14:26:12.156Z,26.31
2022-08-20T14:28:38.529Z,26.25
2022-08-20T14:31:04.968Z,26.18
2022-08-20T14:33:31.365Z,26.18
2022-08-20T14:35:57.813Z,26.15
2022-08-20T14:38:24.304Z,26.04
2022-08-20T14:40:50.913Z,26.00
2022-08-20T14:43:17.588Z,25.95
2022-08-20T14:45:44.040Z,25.87
2022-08-20T14:48:10.431Z,25.86
2022-08-20T14:50:37.869Z,25.82
2022-08-20T14:53:05.162Z,25.74
2022-08-20T14:55:37.353Z,25.64
2022-08-20T14:58:11.665Z,25.63
2022-08-20T15:00:38.721Z,25.60
2022-08-20T15:03:05.100Z,25.57
2022-08-20T15:05:31.974Z,25.53
2022-08-20T15:07:59.419Z,25.54
2022-08-20T15:10:29.497Z,25.52
2022-08-20T15:12:56.486Z,25.48
2022-08-20T15:15:24.613Z,25.45
2022-08-20T15:17:55.031Z,25.45
2022-08-20T15:20:25.345Z,25.43
2022-08-20T15:22:52.184Z,25.39
2022-08-20T15:25:22.494Z,25.34
2022-08-20T15:27:49.596Z,25.30
2022-08-20T15:30:20.715Z,25.33
2022-08-20T15:32:51.414Z,25.31
2022-08-20T15:35:21.568Z,25.26
2022-08-20T15:37:49.827Z,25.16
2022-08-20T15:40:24.497Z,25.13
2022-08-20T15:42:53.801Z,25.07
2022-08-20T15:45:22.035Z,25.12
2022-08-20T15:48:01.409Z,25.10
2022-08-20T15:50:38.380Z,25.05
2022-08-20T15:53:11.394Z,25.03
2022-08-20T15:55:43.614Z,24.98
2022-08-20T15:58:39.458Z,25.00
2022-08-20T16:01:36.549Z,25.01
2022-08-20T16:04:21.432Z,24.98
2022-08-20T16:06:51.325Z,24.87
2022-08-20T16:09:29.914Z,24.89
2022-08-20T16:12:05.505Z,24.88
2022-08-20T16:14:39.019Z,24.84
2022-08-20T16:17:08.994Z,24.74
2022-08-20T16:20:02.257Z,24.73
2022-08-20T16:22:30.832Z,24.77
2022-08-20T16:24:57.859Z,24.78
2022-08-20T16:27:47.173Z,24.72
2022-08-20T16:30:31.866Z,24.71
2022-08-20T16:33:10.200Z,24.65
2022-08-20T16:36:13.996Z,24.59
2022-08-20T16:38:48.117Z,24.62
2022-08-20T16:41:23.508Z,24.62
2022-08-20T16:43:56.237Z,24.59
2022-08-20T16:46:29.762Z,24.56
2022-08-20T16:48:59.153Z,24.46
2022-08-20T16:51:34.125Z,24.48
2022-08-20T16:54:00.657Z,24.41
2022-08-20T16:56:43.245Z,24.42
2022-08-20T16:59:24.580Z,24.40
2022-08-20T17:02:10.417Z,24.35
2022-08-20T17:04:58.608Z,24.32
2022-08-20T17:07:43.211Z,24.32
2022-08-20T17:10:28.192Z,24.32
2022-08-20T17:13:14.190Z,24.26
2022-08-20T17:15:43.528Z,24.25
2022-08-20T17:18:25.553Z,24.20
2022-08-20T17:20:52.739Z,24.15
2022-08-20T17:23:21.073Z,24.11
2022-08-20T17:26:02.788Z,24.06
2022-08-20T17:28:34.570Z,24.04
2022-08-20T17:31:01.772Z,24.04
2022-08-20T17:33:38.813Z,24.00
2022-08-20T17:36:16.888Z,24.01
2022-08-20T17:39:01.227Z,23.97
2022-08-20T17:41:34.269Z,23.95
2022-08-20T17:44:07.030Z,23.90
2022-08-20T17:46:39.662Z,23.84
2022-08-20T17:49:09.726Z,23.81
2022-08-20T17:51:49.906Z,23.78
2022-08-20T17:54:22.975Z,23.72
2022-08-20T17:56:54.062Z,23.69
2022-08-20T17:59:44.422Z,23.70
2022-08-20T18:02:16.740Z,23.68
2022-08-20T18:04:44.549Z,23.59
2022-08-20T18:07:10.993Z,23.60
2022-08-20T18:09:58.273Z,23.51
2022-08-20T18:12:40.229Z,23.47
2022-08-20T18:15:23.659Z,23.44
2022-08-20T18:18:11.914Z,23.36
2022-08-20T18:21:14.009Z,23.37
2022-08-20T18:23:47.710Z,23.29
2022-08-20T18:26:34.307Z,23.15
2022-08-20T18:29:13.526Z,23.15
2022-08-20T18:31:56.397Z,23.07
2022-08-20T18:34:43.056Z,23.08
2022-08-20T18:37:12.561Z,22.94
2022-08-20T18:39:42.140Z,22.93
2022-08-20T18:42:17.410Z,22.93
2022-08-20T18:44:46.870Z,22.92
2022-08-20T18:47:27.341Z,22.84
2022-08-20T18:50:16.700Z,22.79
2022-08-20T18:52:47.486Z,22.77
2022-08-20T18:55:47.674Z,22.65
2022-08-20T18:58:28.650Z,22.65
2022-08-20T19:00:54.986Z,22.64
2022-08-20T19:03:29.846Z,22.55
2022-08-20T19:06:04.205Z,22.63
2022-08-20T19:09:09.324Z,22.58
2022-08-20T19:11:51.133Z,22.46
2022-08-20T19:14:29.668Z,22.36
2022-08-20T19:17:02.474Z,22.40
2022-08-20T19:19:32.823Z,22.35
2022-08-20T19:22:02.079Z,22.36
2022-08-20T19:24:32.562Z,22.25
2022-08-20T19:27:04.373Z,22.20
2022-08-20T19:29:35.069Z,22.12
2022-08-20T19:32:04.957Z,22.07
2022-08-20T19:34:32.143Z,22.03
2022-08-20T19:37:08.908Z,21.94
2022-08-20T19:39:50.703Z,21.95
2022-08-20T19:42:23.210Z,21.89
2022-08-20T19:45:03.634Z,21.80
2022-08-20T19:47:35.455Z,21.72
2022-08-20T19:50:18.258Z,21.72
2022-08-20T19:52:56.596Z,21.69
2022-08-20T19:55:35.201Z,21.59
2022-08-20T19:58:05.732Z,21.50
2022-08-20T20:00:58.959Z,21.51
2022-08-20T20:03:28.383Z,21.37
2022-08-20T20:06:01.430Z,21.34
2022-08-20T20:08:37.869Z,21.23
2022-08-20T20:11:05.741Z,21.22
2022-08-20T20:13:36.003Z,21.19
2022-08-20T20:16:07.312Z,21.15
2022-08-20T20:18:37.556Z,21.16
2022-08-20T20:21:14.514Z,21.13
2022-08-20T20:23:46.052Z,21.15
2022-08-20T20:26:17.096Z,20.96
2022-08-20T20:28:47.221Z,20.95
2022-08-20T20:31:22.508Z,20.77
2022-08-20T20:33:54.129Z,20.81
2022-08-20T20:36:41.160Z,20.78
2022-08-20T20:39:14.499Z,20.68
2022-08-20T20:41:52.390Z,20.65
2022-08-20T20:44:37.130Z,20.57
2022-08-20T20:47:18.029Z,20.55
2022-08-20T20:49:51.543Z,20.52
2022-08-20T20:52:28.389Z,20.50
2022-08-20T20:55:11.963Z,20.42
2022-08-20T20:57:39.232Z,20.42
2022-08-20T21:00:11.490Z,20.37
2022-08-20T21:02:38.158Z,20.33
2022-08-20T21:05:05.203Z,20.27
2022-08-20T21:07:31.986Z,20.21
2022-08-20T21:09:58.978Z,20.16
2022-08-20T21:12:25.477Z,20.07
2022-08-20T21:14:52.030Z,20.05
2022-08-20T21:17:21.880Z,20.02
2022-08-20T21:19:49.957Z,19.98
2022-08-20T21:22:17.539Z,19.94
2022-08-20T21:24:45.556Z,19.97
2022-08-20T21:27:12.705Z,19.86
2022-08-20T21:29:39.452Z,19.67
2022-08-20T21:32:06.165Z,19.66
2022-08-20T21:34:32.624Z,19.64
2022-08-20T21:36:59.010Z,19.63
2022-08-20T21:39:26.944Z,19.60
2022-08-20T21:41:54.926Z,19.56
2022-08-20T21:44:25.230Z,19.58
2022-08-20T21:46:54.062Z,19.53
2022-08-20T21:49:22.285Z,19.57
2022-08-20T21:51:49.981Z,19.41
2022-08-20T21:54:17.144Z,19.46
2022-08-20T21:57:04.777Z,19.50
2022-08-20T21:59:32.129Z,19.35
2022-08-20T22:02:00.486Z,19.26
2022-08-20T22:04:27.589Z,19.27
2022-08-20T22:06:54.690Z,19.16
2022-08-20T22:09:21.254Z,19.18
2022-08-20T22:11:53.877Z,19.10
2022-08-20T22:14:21.254Z,18.92
2022-08-20T22:16:48.058Z,19.03
2022-08-20T22:19:16.180Z,18.97
2022-08-20T22:21:43.140Z,18.85
2022-08-20T22:24:10.890Z,18.74
2022-08-20T22:26:40.089Z,18.79
2022-08-20T22:29:08.740Z,18.81
2022-08-20T22:31:38.192Z,18.67
2022-08-20T22:34:05.796Z,18.67
2022-08-20T22:36:33.408Z,18.42
2022-08-20T22:39:00.312Z,18.29
2022-08-20T22:41:27.095Z,18.34
2022-08-20T22:43:56.388Z,18.35
2022-08-20T22:46:27.047Z,18.28
2022-08-20T22:48:54.523Z,18.26
2022-08-20T22:51:26.588Z,18.13
2022-08-20T22:53:53.135Z,18.13
2022-08-20T22:56:21.822Z,18.12
2022-08-20T22:58:50.176Z,18.15
2022-08-20T23:01:17.665Z,18.05
2022-08-20T23:03:44.269Z,17.96
2022-08-20T23:06:11.154Z,17.69
2022-08-20T23:08:38.420Z,17.84
2022-08-20T23:11:05.096Z,17.77
2022-08-20T23:13:31.491Z,17.83
2022-08-20T23:15:58.296Z,17.74
2022-08-20T23:18:24.829Z,17.76
2022-08-20T23:20:56.118Z,17.71
2022-08-20T23:23:24.175Z,17.80
2022-08-20T23:25:51.125Z,17.68
2022-08-20T23:28:19.193Z,17.82
2022-08-20T23:30:47.016Z,17.79
2022-08-20T23:33:14.229Z,17.79
2022-08-20T23:35:41.822Z,17.74
2022-08-20T23:38:08.618Z,17.70
2022-08-20T23:40:36.054Z,17.70
2022-08-20T23:43:03.078Z,17.69
2022-08-20T23:45:29.909Z,17.64
2022-08-20T23:47:56.434Z,17.63
2022-08-20T23:50:27.549Z,17.40
2022-08-20T23:52:54.384Z,17.42
2022-08-20T23:55:22.807Z,17.31
2022-08-20T23:57:50.110Z,17.29
